Time;durP1;ratioP1;P1;durP2;ratioP2;P2;SDS_P1;SDS_P2;PMS_P1;PMS_P2;Temp;Humidity;BMP_temperature;BMP_pressure;BME280_temperature;BME280_humidity;BME280_pressure;Samples;Min_cycle;Max_cycle;Signal;HPM_P1;HPM_P2
2021/09/28 00:00:48;;;;;;;4.17;1.80;;;14.70;1.00;;;;;;6311332;22;20163;-83
2021/09/28 00:03:14;;;;;;;2.97;1.63;;;14.70;1.00;;;;;;6312276;22;20493;-83
2021/09/28 00:05:40;;;;;;;2.43;1.70;;;14.70;1.00;;;;;;6309931;22;20513;-83
2021/09/28 00:08:05;;;;;;;2.60;1.47;;;14.70;1.00;;;;;;6310593;22;20163;-83
2021/09/28 00:10:33;;;;;;;2.33;1.67;;;14.70;1.00;;;;;;6310244;22;20184;-83
2021/09/28 00:12:59;;;;;;;2.83;1.77;;;14.60;1.00;;;;;;6312026;22;20155;-83
2021/09/28 00:15:24;;;;;;;3.20;1.70;;;14.60;1.00;;;;;;6311153;22;20182;-83
2021/09/28 00:17:50;;;;;;;3.20;1.80;;;14.70;1.00;;;;;;6311974;22;20586;-84
2021/09/28 00:20:15;;;;;;;4.10;1.77;;;14.60;1.00;;;;;;6310427;22;20172;-83
2021/09/28 00:22:42;;;;;;;3.40;1.50;;;14.70;1.00;;;;;;6313449;22;20171;-83
2021/09/28 00:25:09;;;;;;;4.47;1.97;;;14.50;1.00;;;;;;6308964;22;20217;-83
2021/09/28 00:27:34;;;;;;;3.97;1.60;;;14.40;1.00;;;;;;6310716;22;20243;-83
2021/09/28 00:30:00;;;;;;;5.03;1.90;;;14.50;1.00;;;;;;6311619;22;20201;-83
2021/09/28 00:32:27;;;;;;;2.37;1.50;;;14.40;1.00;;;;;;6310507;22;20305;-83
2021/09/28 00:34:53;;;;;;;4.10;1.70;;;14.40;1.00;;;;;;6308445;22;20735;-83
2021/09/28 00:37:19;;;;;;;2.73;1.53;;;14.40;1.00;;;;;;6309087;22;20154;-83
2021/09/28 00:39:45;;;;;;;5.50;1.50;;;;;;;;;;6313937;22;20167;-81
2021/09/28 00:42:11;;;;;;;4.47;1.57;;;;;;;;;;6308137;22;20665;-81
2021/09/28 00:44:39;;;;;;;4.57;1.70;;;14.30;1.00;;;;;;6310005;22;20171;-81
2021/09/28 00:47:07;;;;;;;6.13;1.67;;;14.30;1.00;;;;;;6311945;22;20154;-82
2021/09/28 00:49:32;;;;;;;2.73;1.30;;;14.20;1.00;;;;;;6312015;22;20203;-82
2021/09/28 00:51:58;;;;;;;5.37;1.50;;;14.40;1.00;;;;;;6307381;22;20229;-82
2021/09/28 00:54:24;;;;;;;2.07;1.43;;;14.10;1.00;;;;;;6310012;22;20231;-82
2021/09/28 00:56:51;;;;;;;2.23;1.30;;;14.10;1.00;;;;;;6309585;22;20162;-82
2021/09/28 00:59:17;;;;;;;4.13;1.27;;;14.10;1.00;;;;;;6309964;22;20161;-83
2021/09/28 01:01:45;;;;;;;2.70;1.73;;;14.00;1.00;;;;;;6308485;22;20166;-82
2021/09/28 01:04:16;;;;;;;4.97;1.47;;;14.00;1.00;;;;;;6309551;22;20265;-83
2021/09/28 01:06:44;;;;;;;3.57;1.60;;;14.00;1.00;;;;;;6311214;22;20135;-83
2021/09/28 01:09:11;;;;;;;5.70;1.50;;;13.90;1.00;;;;;;6309110;22;20192;-83
2021/09/28 01:11:38;;;;;;;3.50;1.27;;;13.90;1.00;;;;;;6309548;22;20176;-83
2021/09/28 01:14:04;;;;;;;3.87;1.40;;;13.80;1.00;;;;;;6306787;22;20245;-83
2021/09/28 01:16:30;;;;;;;3.23;1.63;;;13.70;1.00;;;;;;6310317;22;20165;-83
2021/09/28 01:18:56;;;;;;;2.00;1.20;;;13.70;1.00;;;;;;6311158;22;20232;-83
2021/09/28 01:21:22;;;;;;;5.40;1.53;;;13.70;1.00;;;;;;6308774;22;20163;-83
2021/09/28 01:23:48;;;;;;;4.60;1.57;;;13.60;1.00;;;;;;6308515;22;20228;-83
2021/09/28 01:26:17;;;;;;;5.60;1.50;;;13.60;1.00;;;;;;6307887;22;20213;-83
2021/09/28 01:28:44;;;;;;;3.27;1.47;;;13.50;1.00;;;;;;6307405;22;20221;-82
2021/09/28 01:31:10;;;;;;;3.73;1.60;;;13.50;1.00;;;;;;6308697;22;20189;-83
2021/09/28 01:33:36;;;;;;;4.93;1.80;;;13.50;1.00;;;;;;6307468;22;20588;-83
2021/09/28 01:36:02;;;;;;;6.40;1.80;;;13.50;1.00;;;;;;6311831;22;20172;-83
2021/09/28 01:38:28;;;;;;;2.63;1.40;;;;;;;;;;6311311;22;20209;-83
2021/09/28 01:40:53;;;;;;;3.20;1.43;;;13.40;1.00;;;;;;6309036;22;20186;-84
2021/09/28 01:43:20;;;;;;;3.10;1.47;;;14.40;1.00;;;;;;6314895;22;20163;-83
2021/09/28 01:45:47;;;;;;;3.60;1.50;;;13.40;1.00;;;;;;6309784;22;20183;-83
2021/09/28 01:48:13;;;;;;;6.00;2.40;;;13.40;1.00;;;;;;6307730;22;20166;-83
2021/09/28 01:50:40;;;;;;;3.30;1.43;;;;;;;;;;6306944;22;20219;-84
2021/09/28 01:53:05;;;;;;;3.63;1.60;;;13.30;1.00;;;;;;6311692;22;20732;-82
2021/09/28 01:55:32;;;;;;;2.97;1.60;;;13.30;1.00;;;;;;6309928;22;20200;-82
2021/09/28 01:57:58;;;;;;;5.27;1.77;;;13.30;1.00;;;;;;6309868;22;20162;-82
2021/09/28 02:00:25;;;;;;;4.87;1.67;;;13.30;1.00;;;;;;6309979;22;20162;-82
2021/09/28 02:02:51;;;;;;;5.30;1.80;;;13.40;1.00;;;;;;6310036;22;20194;-82
2021/09/28 02:05:17;;;;;;;3.60;1.80;;;13.30;1.00;;;;;;6310015;22;20252;-83
2021/09/28 02:07:44;;;;;;;3.10;1.77;;;13.90;1.00;;;;;;6309620;22;20184;-82
2021/09/28 02:10:10;;;;;;;5.00;2.40;;;13.30;1.00;;;;;;6307554;22;20192;-82
2021/09/28 02:12:35;;;;;;;5.30;1.67;;;13.30;1.00;;;;;;6312739;22;20236;-83
2021/09/28 02:15:01;;;;;;;2.83;1.70;;;13.30;1.00;;;;;;6309564;22;20222;-82
2021/09/28 02:17:27;;;;;;;5.90;1.70;;;;;;;;;;6311974;22;20156;-83
2021/09/28 02:19:53;;;;;;;3.87;1.47;;;;;;;;;;6309832;22;20157;-83
2021/09/28 02:22:19;;;;;;;2.57;1.80;;;;;;;;;;6309076;22;20634;-83
2021/09/28 02:24:45;;;;;;;3.20;1.57;;;13.30;1.00;;;;;;6311225;22;20200;-82
2021/09/28 02:27:11;;;;;;;3.63;1.83;;;;;;;;;;6312862;22;20715;-82
2021/09/28 02:29:37;;;;;;;3.33;1.80;;;;;;;;;;6311766;22;20189;-83
2021/09/28 02:32:03;;;;;;;3.07;1.67;;;13.10;1.00;;;;;;6309051;22;20158;-82
2021/09/28 02:34:28;;;;;;;5.43;1.93;;;13.10;1.00;;;;;;6312483;22;20633;-83
2021/09/28 02:36:54;;;;;;;4.27;1.67;;;12.90;1.00;;;;;;6312958;22;20161;-82
2021/09/28 02:39:19;;;;;;;4.30;1.77;;;13.10;1.00;;;;;;6312204;22;20235;-83
2021/09/28 02:41:45;;;;;;;4.20;1.70;;;13.10;1.00;;;;;;6314644;22;20253;-83
2021/09/28 02:44:13;;;;;;;3.83;1.73;;;12.80;1.00;;;;;;6313879;22;20154;-83
2021/09/28 02:46:38;;;;;;;3.53;2.50;;;12.80;1.00;;;;;;6309960;22;20171;-82
2021/09/28 02:49:04;;;;;;;4.73;1.67;;;12.70;1.00;;;;;;6311174;22;20200;-83
2021/09/28 02:51:30;;;;;;;3.70;1.63;;;12.70;1.00;;;;;;6309492;22;20160;-83
2021/09/28 02:53:55;;;;;;;5.67;2.00;;;12.70;1.00;;;;;;6310253;22;20162;-82
2021/09/28 02:56:21;;;;;;;5.70;2.90;;;15.10;1.00;;;;;;6312445;22;20497;-82
2021/09/28 02:58:47;;;;;;;3.97;1.50;;;12.70;1.00;;;;;;6311395;22;20160;-82
2021/09/28 03:01:13;;;;;;;5.33;2.07;;;12.60;1.00;;;;;;6311995;22;20209;-82
2021/09/28 03:03:38;;;;;;;3.33;1.60;;;12.60;1.00;;;;;;6308629;22;20179;-84
2021/09/28 03:06:05;;;;;;;2.67;2.03;;;12.60;1.00;;;;;;6309507;22;20163;-83
2021/09/28 03:08:34;;;;;;;4.03;1.70;;;12.60;1.00;;;;;;6309874;22;20161;-83
2021/09/28 03:11:00;;;;;;;2.40;1.67;;;12.60;1.00;;;;;;6312229;22;20246;-82
2021/09/28 03:13:26;;;;;;;4.50;2.10;;;12.50;1.00;;;;;;6314085;22;20156;-83
2021/09/28 03:15:52;;;;;;;3.53;1.77;;;12.80;1.00;;;;;;6311835;22;20161;-83
2021/09/28 03:18:17;;;;;;;4.43;1.70;;;12.50;1.00;;;;;;6311125;22;20157;-82
2021/09/28 03:20:43;;;;;;;6.07;1.70;;;12.80;1.00;;;;;;6311322;22;20552;-82
2021/09/28 03:23:09;;;;;;;4.17;1.67;;;13.60;1.00;;;;;;6310264;22;20160;-83
2021/09/28 03:25:35;;;;;;;3.80;1.93;;;14.40;1.00;;;;;;6309763;22;20165;-83
2021/09/28 03:28:03;;;;;;;4.33;1.87;;;12.40;1.00;;;;;;6310175;22;20486;-82
2021/09/28 03:30:29;;;;;;;10.30;2.10;;;12.30;1.00;;;;;;6310370;22;20680;-83
2021/09/28 03:32:55;;;;;;;2.30;1.70;;;15.10;1.00;;;;;;6308433;22;20239;-82
2021/09/28 03:35:21;;;;;;;6.07;1.70;;;12.30;1.00;;;;;;6310174;22;20184;-82
2021/09/28 03:37:50;;;;;;;4.53;2.10;;;12.50;1.00;;;;;;6311117;22;20162;-82
2021/09/28 03:40:16;;;;;;;2.67;1.67;;;;;;;;;;6312683;22;20164;-82
2021/09/28 03:42:42;;;;;;;6.67;2.20;;;12.30;1.00;;;;;;6308126;22;20176;-82
2021/09/28 03:45:08;;;;;;;5.87;1.90;;;12.30;1.00;;;;;;6313790;22;20569;-82
2021/09/28 03:47:34;;;;;;;3.47;2.07;;;12.30;1.00;;;;;;6312734;22;20168;-82
2021/09/28 03:50:00;;;;;;;5.07;2.20;;;12.20;1.00;;;;;;6310974;22;20183;-83
2021/09/28 03:52:26;;;;;;;6.77;2.83;;;12.20;1.00;;;;;;6312359;22;20162;-83
2021/09/28 03:54:52;;;;;;;4.30;1.80;;;12.20;1.00;;;;;;6310861;22;20162;-82
2021/09/28 03:57:18;;;;;;;3.80;2.07;;;13.80;1.00;;;;;;6310799;22;20188;-83
2021/09/28 03:59:46;;;;;;;4.90;2.30;;;12.20;1.00;;;;;;6309967;22;20171;-83
2021/09/28 04:02:12;;;;;;;5.23;2.10;;;;;;;;;;6308514;22;20157;-82
2021/09/28 04:04:37;;;;;;;6.07;2.10;;;12.10;1.00;;;;;;6309147;22;20207;-83
2021/09/28 04:07:03;;;;;;;5.97;2.70;;;12.10;1.00;;;;;;6309023;22;20172;-83
2021/09/28 04:09:29;;;;;;;5.63;2.00;;;12.00;1.00;;;;;;6311208;22;20194;-82
2021/09/28 04:11:55;;;;;;;4.77;2.60;;;12.00;1.00;;;;;;6309896;22;20163;-83
2021/09/28 04:14:21;;;;;;;3.30;2.30;;;;;;;;;;6311633;22;20159;-82
2021/09/28 04:16:46;;;;;;;4.10;2.33;;;12.00;1.00;;;;;;6310068;22;20166;-83
2021/09/28 04:19:12;;;;;;;5.90;2.40;;;14.00;1.00;;;;;;6310718;22;20660;-84
2021/09/28 04:21:39;;;;;;;5.83;2.27;;;;;;;;;;6309055;22;20209;-83
2021/09/28 04:24:06;;;;;;;5.00;2.27;;;13.20;1.00;;;;;;6309085;22;20477;-83
2021/09/28 04:26:33;;;;;;;6.50;2.93;;;12.00;1.00;;;;;;6310314;22;20158;-83
2021/09/28 04:29:00;;;;;;;2.73;2.17;;;12.00;1.00;;;;;;6310044;22;20174;-83
2021/09/28 04:31:26;;;;;;;5.30;2.53;;;;;;;;;;6312528;22;20156;-83
2021/09/28 04:33:52;;;;;;;8.70;2.70;;;;;;;;;;6309689;22;20262;-83
2021/09/28 04:36:17;;;;;;;3.73;2.47;;;11.90;1.00;;;;;;6311172;22;20174;-83
2021/09/28 04:38:43;;;;;;;3.23;2.93;;;11.80;1.00;;;;;;6311099;22;20496;-84
2021/09/28 04:41:08;;;;;;;3.20;2.47;;;11.90;1.00;;;;;;6309375;22;20166;-83
2021/09/28 04:43:34;;;;;;;6.43;2.50;;;11.90;1.00;;;;;;6311017;22;20153;-83
2021/09/28 04:46:00;;;;;;;8.47;2.70;;;11.80;1.00;;;;;;6310367;22;20619;-83
2021/09/28 04:48:26;;;;;;;4.90;2.20;;;11.80;1.00;;;;;;6312323;22;20161;-83
2021/09/28 04:50:53;;;;;;;4.90;2.70;;;11.70;1.00;;;;;;6310419;22;20648;-83
2021/09/28 04:53:20;;;;;;;5.03;2.33;;;12.00;1.00;;;;;;6309919;22;20491;-83
2021/09/28 04:55:46;;;;;;;5.33;2.67;;;11.70;1.00;;;;;;6309637;22;20501;-83
2021/09/28 04:58:12;;;;;;;5.87;2.77;;;11.70;1.00;;;;;;6309321;22;20190;-83
2021/09/28 05:00:38;;;;;;;5.93;2.73;;;11.60;1.00;;;;;;6305756;22;20169;-83
2021/09/28 05:03:04;;;;;;;4.50;2.90;;;11.50;1.00;;;;;;6307909;22;20171;-83
2021/09/28 05:05:30;;;;;;;7.63;3.50;;;11.60;1.00;;;;;;6308743;22;20511;-83
2021/09/28 05:07:56;;;;;;;4.30;2.90;;;13.40;1.00;;;;;;6310386;22;20581;-83
2021/09/28 05:10:22;;;;;;;5.53;2.83;;;11.50;1.00;;;;;;6309291;22;20195;-83
2021/09/28 05:12:48;;;;;;;5.77;3.33;;;11.50;1.00;;;;;;6309936;22;20505;-84
2021/09/28 05:15:13;;;;;;;4.43;3.10;;;11.40;1.00;;;;;;6310120;22;20161;-84
2021/09/28 05:17:39;;;;;;;4.87;3.20;;;11.50;1.00;;;;;;6308296;22;20250;-83
2021/09/28 05:20:06;;;;;;;4.50;2.90;;;11.40;1.00;;;;;;6308901;22;20163;-83
2021/09/28 05:22:32;;;;;;;4.90;3.33;;;11.50;1.00;;;;;;6307556;22;20252;-83
2021/09/28 05:24:57;;;;;;;6.90;3.40;;;12.90;1.00;;;;;;6308194;22;20170;-83
2021/09/28 05:27:23;;;;;;;6.10;3.20;;;11.60;1.00;;;;;;6311760;22;20239;-83
2021/09/28 05:29:49;;;;;;;8.90;3.10;;;11.60;1.00;;;;;;6310233;22;20215;-83
2021/09/28 05:32:14;;;;;;;5.87;3.33;;;11.70;1.00;;;;;;6310285;22;20205;-83
2021/09/28 05:34:40;;;;;;;9.47;3.90;;;11.60;1.00;;;;;;6307734;22;20159;-83
2021/09/28 05:37:06;;;;;;;5.53;3.00;;;11.60;1.00;;;;;;6307334;22;20213;-83
2021/09/28 05:39:32;;;;;;;9.07;3.37;;;11.60;1.00;;;;;;6310543;22;20155;-83
2021/09/28 05:41:58;;;;;;;7.30;3.47;;;;;;;;;;6310126;22;20561;-84
2021/09/28 05:44:23;;;;;;;5.23;3.90;;;11.70;1.00;;;;;;6308765;22;20165;-83
2021/09/28 05:46:49;;;;;;;9.57;4.50;;;11.70;1.00;;;;;;6311354;22;20157;-83
2021/09/28 05:49:15;;;;;;;6.07;3.50;;;11.70;1.00;;;;;;6310423;22;20159;-84
2021/09/28 05:51:51;;;;;;;5.80;3.33;;;11.80;1.00;;;;;;6309784;22;20168;-84
2021/09/28 05:54:18;;;;;;;8.03;3.60;;;11.70;1.00;;;;;;6309257;22;20237;-83
2021/09/28 05:56:46;;;;;;;6.90;4.00;;;11.80;1.00;;;;;;6307217;22;20160;-84
2021/09/28 05:59:12;;;;;;;4.37;3.60;;;12.90;1.00;;;;;;6310350;22;20155;-84
2021/09/28 06:01:38;;;;;;;5.33;3.77;;;11.90;1.00;;;;;;6307293;22;20595;-84
2021/09/28 06:04:03;;;;;;;8.07;3.60;;;11.90;1.00;;;;;;6310160;22;20191;-84
2021/09/28 06:06:30;;;;;;;4.83;3.33;;;12.00;1.00;;;;;;6309430;22;20666;-83
2021/09/28 06:08:57;;;;;;;3.73;3.43;;;14.20;1.00;;;;;;6309626;22;20163;-83
2021/09/28 06:11:23;;;;;;;5.47;3.57;;;12.10;1.00;;;;;;6310270;22;20290;-84
2021/09/28 06:13:50;;;;;;;6.77;3.43;;;12.10;1.00;;;;;;6307001;22;20155;-84
2021/09/28 06:16:16;;;;;;;6.87;3.87;;;12.90;1.00;;;;;;6306781;22;20478;-85
2021/09/28 06:18:41;;;;;;;7.23;3.80;;;12.40;1.00;;;;;;6310530;22;20141;-82
2021/09/28 06:21:07;;;;;;;3.87;3.20;;;12.40;1.00;;;;;;6309773;22;20225;-85
2021/09/28 06:23:33;;;;;;;6.00;3.97;;;12.40;1.00;;;;;;6310150;22;20160;-84
2021/09/28 06:25:58;;;;;;;4.80;3.60;;;12.50;1.00;;;;;;6307229;22;20163;-85
2021/09/28 06:28:24;;;;;;;7.60;4.13;;;12.70;1.00;;;;;;6309593;22;20271;-82
2021/09/28 06:30:49;;;;;;;8.10;4.10;;;12.60;1.00;;;;;;6312141;22;20274;-84
2021/09/28 06:33:15;;;;;;;6.13;3.53;;;12.60;1.00;;;;;;6307887;22;20246;-85
2021/09/28 06:35:41;;;;;;;5.63;3.50;;;12.60;1.00;;;;;;6309769;22;20168;-83
2021/09/28 06:38:07;;;;;;;4.30;3.80;;;12.70;1.00;;;;;;6305982;22;20188;-84
2021/09/28 06:40:34;;;;;;;5.27;4.17;;;13.40;1.00;;;;;;6306438;22;20272;-86
2021/09/28 06:43:00;;;;;;;6.07;4.40;;;12.80;1.00;;;;;;6309214;22;20172;-85
2021/09/28 06:45:26;;;;;;;7.30;4.40;;;13.20;1.00;;;;;;6306263;22;20172;-86
2021/09/28 06:47:51;;;;;;;6.10;3.70;;;12.90;1.00;;;;;;6309427;22;20618;-86
2021/09/28 06:50:17;;;;;;;9.67;4.77;;;12.90;1.00;;;;;;6309889;22;20187;-84
2021/09/28 06:52:44;;;;;;;8.57;4.40;;;13.10;1.00;;;;;;6309661;22;20165;-85
2021/09/28 06:55:11;;;;;;;8.40;6.73;;;13.10;1.00;;;;;;6309082;22;20150;-82
2021/09/28 06:57:36;;;;;;;6.43;4.37;;;13.20;1.00;;;;;;6310823;22;20166;-85
2021/09/28 07:00:06;;;;;;;6.03;4.40;;;13.50;1.00;;;;;;6307005;22;20162;-83
2021/09/28 07:02:32;;;;;;;5.07;3.73;;;13.40;1.00;;;;;;6307804;22;20476;-86
2021/09/28 07:04:57;;;;;;;6.13;4.30;;;13.50;1.00;;;;;;6306225;22;20184;-85
2021/09/28 07:07:27;;;;;;;9.97;5.20;;;13.60;1.00;;;;;;6307758;22;20185;-85
2021/09/28 07:09:53;;;;;;;9.40;4.60;;;13.50;1.00;;;;;;6312458;22;20177;-84
2021/09/28 07:12:19;;;;;;;9.43;4.30;;;13.50;1.00;;;;;;6310236;22;20165;-85
2021/09/28 07:14:45;;;;;;;7.20;4.20;;;13.60;1.00;;;;;;6306857;22;20161;-84
2021/09/28 07:17:10;;;;;;;5.60;3.70;;;13.70;1.00;;;;;;6314660;22;20187;-84
2021/09/28 07:19:36;;;;;;;6.60;4.10;;;13.90;1.00;;;;;;6316046;22;20187;-81
2021/09/28 07:22:03;;;;;;;6.87;3.83;;;13.90;1.00;;;;;;6315357;22;20161;-82
2021/09/28 07:24:28;;;;;;;7.70;4.20;;;13.90;1.00;;;;;;6314839;22;20187;-80
2021/09/28 07:26:54;;;;;;;7.60;4.27;;;;;;;;;;6314371;22;20166;-80
2021/09/28 07:29:20;;;;;;;7.57;4.13;;;14.20;1.00;;;;;;6312192;22;20167;-81
2021/09/28 07:31:46;;;;;;;9.57;4.50;;;14.30;1.00;;;;;;6314237;22;20601;-81
2021/09/28 07:34:11;;;;;;;6.33;4.30;;;14.30;1.00;;;;;;6316848;22;20212;-81
2021/09/28 07:36:38;;;;;;;6.63;3.60;;;14.40;1.00;;;;;;6313986;22;20187;-82
2021/09/28 07:39:05;;;;;;;6.40;3.73;;;14.50;1.00;;;;;;6311910;22;20235;-85
2021/09/28 07:41:31;;;;;;;6.30;3.90;;;14.50;1.00;;;;;;6312112;22;20194;-88
2021/09/28 07:43:57;;;;;;;6.77;3.90;;;14.60;1.00;;;;;;6311559;22;20165;-84
2021/09/28 07:46:22;;;;;;;7.33;3.90;;;14.70;1.00;;;;;;6311552;22;20168;-84
2021/09/28 07:48:48;;;;;;;5.67;3.57;;;;;;;;;;6311191;22;20170;-83
2021/09/28 07:51:15;;;;;;;7.03;4.20;;;;;;;;;;6312524;22;20255;-84
2021/09/28 07:53:41;;;;;;;5.33;3.53;;;;;;;;;;6312135;22;20160;-83
2021/09/28 07:56:07;;;;;;;8.10;3.80;;;;;;;;;;6310680;22;20286;-82
2021/09/28 07:58:34;;;;;;;5.40;3.40;;;;;;;;;;6308347;22;20164;-83
2021/09/28 08:01:00;;;;;;;6.87;3.47;;;;;;;;;;6311086;22;20159;-84
2021/09/28 08:03:26;;;;;;;6.40;3.50;;;15.40;1.00;;;;;;6313783;22;20531;-84
2021/09/28 08:05:51;;;;;;;11.10;3.70;;;15.30;1.00;;;;;;6311327;22;20187;-84
2021/09/28 08:08:17;;;;;;;7.10;3.53;;;15.30;1.00;;;;;;6311080;22;20221;-83
2021/09/28 08:10:43;;;;;;;7.90;3.60;;;15.30;1.00;;;;;;6313370;22;20549;-83
2021/09/28 08:13:10;;;;;;;6.67;3.53;;;15.30;1.00;;;;;;6315774;22;20160;-83
2021/09/28 08:15:36;;;;;;;5.17;3.27;;;15.30;1.00;;;;;;6316741;22;20152;-83
2021/09/28 08:18:03;;;;;;;5.33;3.10;;;15.40;1.00;;;;;;6316242;22;20167;-83
2021/09/28 08:20:29;;;;;;;6.83;3.03;;;15.50;1.00;;;;;;6313639;22;20165;-83
2021/09/28 08:22:57;;;;;;;6.03;3.00;;;16.40;1.00;;;;;;6315034;22;20730;-83
2021/09/28 08:25:33;;;;;;;6.27;3.23;;;15.60;1.00;;;;;;6316296;22;20171;-83
2021/09/28 08:30:44;;;;;;;4.87;2.90;;;15.70;1.00;;;;;;6317899;22;20199;-82
2021/09/28 08:33:10;;;;;;;6.63;2.90;;;16.10;1.00;;;;;;6315677;22;20191;-82
2021/09/28 08:35:35;;;;;;;6.27;3.00;;;16.40;1.00;;;;;;6315802;22;20400;-83
2021/09/28 08:38:01;;;;;;;3.63;2.10;;;16.50;1.00;;;;;;6315642;22;20325;-82
2021/09/28 08:40:27;;;;;;;4.97;2.83;;;16.60;1.00;;;;;;6314583;22;20165;-83
2021/09/28 08:42:55;;;;;;;4.63;2.53;;;16.40;1.00;;;;;;6313792;22;20161;-83
2021/09/28 08:45:22;;;;;;;3.93;2.60;;;16.70;1.00;;;;;;6313131;22;20160;-82
2021/09/28 08:47:48;;;;;;;6.60;2.80;;;16.60;1.00;;;;;;6314193;22;20185;-83
2021/09/28 08:50:22;;;;;;;7.50;2.70;;;16.80;1.00;;;;;;6313312;22;20209;-83
2021/09/28 08:52:50;;;;;;;5.33;2.67;;;16.80;1.00;;;;;;6313910;22;20156;-82
2021/09/28 08:55:16;;;;;;;6.00;2.53;;;16.70;1.00;;;;;;6313511;22;20587;-83
2021/09/28 08:57:42;;;;;;;5.00;2.30;;;17.80;1.00;;;;;;6315476;22;20211;-83
2021/09/28 09:00:16;;;;;;;4.50;2.40;;;17.10;1.00;;;;;;6313485;22;20218;-83
2021/09/28 09:02:45;;;;;;;4.90;1.93;;;17.30;1.00;;;;;;6314346;22;20161;-82
2021/09/28 09:05:14;;;;;;;3.77;2.17;;;17.40;1.00;;;;;;6313633;22;20226;-83
2021/09/28 09:07:55;;;;;;;4.23;1.80;;;17.40;1.00;;;;;;6314776;22;20166;-82
2021/09/28 09:10:29;;;;;;;3.43;2.50;;;17.30;1.00;;;;;;6315789;22;20171;-83
2021/09/28 09:12:55;;;;;;;2.70;2.13;;;17.30;1.00;;;;;;6315319;22;20215;-83
2021/09/28 09:15:25;;;;;;;4.07;2.10;;;17.60;1.00;;;;;;6314687;22;20392;-83
2021/09/28 09:17:54;;;;;;;5.60;2.27;;;17.70;1.00;;;;;;6312176;22;20162;-83
2021/09/28 09:20:40;;;;;;;5.10;2.23;;;17.90;1.00;;;;;;6311433;22;20218;-83
2021/09/28 09:23:18;;;;;;;3.37;2.10;;;17.90;1.00;;;;;;6311913;22;20163;-83
2021/09/28 09:25:45;;;;;;;5.07;2.30;;;18.00;1.00;;;;;;6313212;22;20156;-82
2021/09/28 09:28:28;;;;;;;4.47;1.97;;;18.00;1.00;;;;;;6313843;22;20161;-82
2021/09/28 09:31:04;;;;;;;5.63;2.47;;;18.00;1.00;;;;;;6312194;22;20191;-82
2021/09/28 09:33:30;;;;;;;6.30;2.40;;;18.20;1.00;;;;;;6313930;22;20449;-81
2021/09/28 09:35:58;;;;;;;4.97;2.20;;;18.60;1.00;;;;;;6314765;22;20203;-83
2021/09/28 09:38:25;;;;;;;4.97;2.03;;;18.50;1.00;;;;;;6314599;22;20154;-83
2021/09/28 09:40:51;;;;;;;5.87;2.30;;;18.20;1.00;;;;;;6313085;22;20162;-83
2021/09/28 09:43:27;;;;;;;6.57;2.47;;;18.30;1.00;;;;;;6312292;22;20172;-83
2021/09/28 09:46:09;;;;;;;5.73;2.33;;;18.50;1.00;;;;;;6314630;22;20135;-83
2021/09/28 09:48:36;;;;;;;7.33;2.33;;;18.50;1.00;;;;;;6313767;22;20207;-83
2021/09/28 09:51:11;;;;;;;5.17;2.40;;;18.70;1.00;;;;;;6312308;22;20222;-83
2021/09/28 09:53:49;;;;;;;5.43;1.93;;;18.70;1.00;;;;;;6312793;22;20155;-83
2021/09/28 09:56:16;;;;;;;6.43;2.30;;;18.90;1.00;;;;;;6314468;22;20202;-83
2021/09/28 09:58:42;;;;;;;5.40;2.63;;;;;;;;;;6313339;22;20161;-83
2021/09/28 10:01:07;;;;;;;8.57;2.93;;;18.90;1.00;;;;;;6315225;22;20165;-83
2021/09/28 10:03:38;;;;;;;6.90;3.57;;;19.00;1.00;;;;;;6315492;22;20161;-83
2021/09/28 10:06:05;;;;;;;4.47;2.33;;;19.00;1.00;;;;;;6314340;22;20175;-83
2021/09/28 10:08:32;;;;;;;6.93;2.10;;;19.10;1.00;;;;;;6315292;22;20158;-83
2021/09/28 10:10:58;;;;;;;5.87;2.00;;;18.50;1.00;;;;;;6314220;22;20193;-83
2021/09/28 10:13:51;;;;;;;7.37;2.20;;;18.70;1.00;;;;;;6312495;22;20159;-83
2021/09/28 10:16:32;;;;;;;4.10;2.07;;;19.00;1.00;;;;;;6313714;22;20161;-83
2021/09/28 10:18:59;;;;;;;4.30;1.87;;;19.20;1.00;;;;;;6313949;22;20207;-83
2021/09/28 10:21:38;;;;;;;4.53;2.10;;;19.20;1.00;;;;;;6315580;22;20157;-83
2021/09/28 10:24:19;;;;;;;3.57;1.47;;;19.20;1.00;;;;;;6312442;22;20929;-83
2021/09/28 10:26:46;;;;;;;5.47;1.90;;;19.30;1.00;;;;;;6313523;22;20159;-83
2021/09/28 10:29:37;;;;;;;5.27;1.70;;;19.50;1.00;;;;;;6314016;22;20156;-83
2021/09/28 10:32:26;;;;;;;3.50;1.97;;;19.50;1.00;;;;;;6314614;22;20192;-83
2021/09/28 10:35:06;;;;;;;4.03;1.73;;;19.70;1.00;;;;;;6316579;22;20169;-83
2021/09/28 10:37:57;;;;;;;6.80;2.00;;;19.70;1.00;;;;;;6313630;22;20522;-83
2021/09/28 10:40:24;;;;;;;6.60;1.80;;;19.50;1.00;;;;;;6302461;22;20166;-83
2021/09/28 10:42:59;;;;;;;8.63;1.80;;;19.70;1.00;;;;;;6313906;22;20554;-83
2021/09/28 10:45:27;;;;;;;5.90;1.57;;;19.90;1.00;;;;;;6315852;22;20157;-84
2021/09/28 10:47:55;;;;;;;2.00;1.47;;;20.30;1.00;;;;;;6318182;22;20171;-84
2021/09/28 10:50:29;;;;;;;4.87;1.60;;;20.20;1.00;;;;;;6315595;22;20187;-83
2021/09/28 10:52:57;;;;;;;3.93;1.90;;;20.30;1.00;;;;;;6315255;22;20165;-84
2021/09/28 10:55:26;;;;;;;5.60;1.70;;;20.30;1.00;;;;;;6317575;22;20159;-83
2021/09/28 10:57:55;;;;;;;4.17;1.80;;;20.30;1.00;;;;;;6317775;22;20229;-83
2021/09/28 11:00:26;;;;;;;7.90;2.00;;;20.20;1.00;;;;;;6319339;22;20233;-84
2021/09/28 11:02:51;;;;;;;6.27;2.07;;;20.20;1.00;;;;;;6318745;22;20219;-84
2021/09/28 11:05:29;;;;;;;6.57;1.77;;;20.30;1.00;;;;;;6318089;22;20220;-83
2021/09/28 11:07:56;;;;;;;4.40;1.73;;;20.50;1.00;;;;;;6318650;22;20190;-83
2021/09/28 11:10:22;;;;;;;3.87;1.63;;;;;;;;;;6321390;22;20167;-83
2021/09/28 11:12:48;;;;;;;2.77;1.30;;;20.70;1.00;;;;;;6319640;22;20193;-83
2021/09/28 11:15:25;;;;;;;3.87;1.53;;;20.70;1.00;;;;;;6318511;22;20154;-83
2021/09/28 11:17:51;;;;;;;6.07;2.20;;;20.60;1.00;;;;;;6319702;22;20162;-83
2021/09/28 11:20:28;;;;;;;3.30;1.60;;;20.60;1.00;;;;;;6320275;22;20255;-83
2021/09/28 11:22:58;;;;;;;4.17;1.53;;;20.20;1.00;;;;;;6316966;22;20150;-83
2021/09/28 11:25:24;;;;;;;4.63;1.57;;;20.30;1.00;;;;;;6317157;22;20574;-83
2021/09/28 11:28:21;;;;;;;2.80;1.30;;;20.80;1.00;;;;;;6317120;22;20225;-83
2021/09/28 11:30:51;;;;;;;3.80;1.47;;;21.10;1.00;;;;;;6292114;22;20190;-83
2021/09/28 11:33:17;;;;;;;4.07;1.30;;;21.60;1.00;;;;;;6315943;22;20179;-83
2021/09/28 11:35:59;;;;;;;3.45;1.67;;;21.70;1.00;;;;;;6313374;22;20173;-83
2021/09/28 11:38:39;;;;;;;2.58;1.10;;;22.40;1.00;;;;;;6314696;22;20150;-83
2021/09/28 11:41:12;;;;;;;5.95;1.52;;;23.60;1.00;;;;;;6315802;22;20140;-83
2021/09/28 11:43:40;;;;;;;3.72;1.27;;;23.80;1.00;;;;;;6312813;22;20232;-84
2021/09/28 11:46:12;;;;;;;3.40;1.52;;;24.20;1.00;;;;;;6312623;22;20168;-84
2021/09/28 11:48:56;;;;;;;2.00;0.90;;;25.00;1.00;;;;;;6313982;22;20164;-83
2021/09/28 11:51:25;;;;;;;5.40;1.70;;;25.10;1.00;;;;;;6313449;22;20200;-83
2021/09/28 11:54:08;;;;;;;3.15;1.55;;;25.90;1.00;;;;;;6313336;22;20157;-83
2021/09/28 11:56:39;;;;;;;2.40;1.10;;;26.50;1.00;;;;;;6311769;22;20226;-84
2021/09/28 11:59:13;;;;;;;5.47;1.45;;;27.00;1.00;;;;;;6314340;22;20194;-84
2021/09/28 12:01:40;;;;;;;3.47;1.20;;;28.00;1.00;;;;;;6311766;22;20209;-83
2021/09/28 12:09:39;;;;;;;2.88;1.42;;;29.20;1.00;;;;;;6315969;22;20179;-83
2021/09/28 12:12:11;;;;;;;4.18;1.33;;;29.40;1.00;;;;;;6311152;22;20700;-84
2021/09/28 12:14:39;;;;;;;4.25;1.58;;;29.70;1.00;;;;;;6312720;22;20156;-84
2021/09/28 12:17:11;;;;;;;2.45;1.20;;;30.40;1.00;;;;;;6312491;22;20153;-83
2021/09/28 12:19:38;;;;;;;3.40;1.23;;;30.20;1.00;;;;;;6311844;22;20204;-84
2021/09/28 12:22:04;;;;;;;3.70;1.10;;;30.50;1.00;;;;;;6311091;22;20293;-84
2021/09/28 12:24:41;;;;;;;1.77;1.10;;;30.50;1.00;;;;;;6313154;22;20179;-84
2021/09/28 12:27:08;;;;;;;4.65;1.27;;;30.50;1.00;;;;;;6314207;22;20156;-83
2021/09/28 12:29:43;;;;;;;2.88;1.50;;;30.10;1.00;;;;;;6313231;22;20188;-83
2021/09/28 12:32:23;;;;;;;3.10;1.30;;;30.10;1.00;;;;;;6316641;22;20144;-82
2021/09/28 12:34:56;;;;;;;3.25;1.55;;;30.10;1.00;;;;;;6314484;22;20190;-83
2021/09/28 12:37:23;;;;;;;3.58;1.25;;;30.80;1.00;;;;;;6316650;22;20172;-83
2021/09/28 12:40:12;;;;;;;2.80;1.20;;;30.60;1.00;;;;;;6312907;22;20197;-84
2021/09/28 12:42:40;;;;;;;4.90;1.65;;;30.80;1.00;;;;;;6315025;22;20259;-83
2021/09/28 12:45:11;;;;;;;3.33;1.13;;;31.30;1.00;;;;;;6313058;22;20220;-83
2021/09/28 12:47:42;;;;;;;6.28;1.63;;;31.40;1.00;;;;;;6312265;22;20244;-83
2021/09/28 12:50:28;;;;;;;3.55;1.27;;;30.00;1.00;;;;;;6310137;22;20183;-83
2021/09/28 12:52:59;;;;;;;3.25;1.40;;;30.40;1.00;;;;;;6310931;22;20160;-83
2021/09/28 12:55:26;;;;;;;3.75;1.38;;;31.20;1.00;;;;;;6314514;22;20151;-83
2021/09/28 12:57:53;;;;;;;3.53;1.50;;;31.70;1.00;;;;;;6308908;22;20209;-83
2021/09/28 13:00:19;;;;;;;4.40;1.58;;;31.90;1.00;;;;;;6313799;22;20198;-83
2021/09/28 13:02:46;;;;;;;4.22;1.48;;;32.40;1.00;;;;;;6315182;22;20149;-83
2021/09/28 13:05:13;;;;;;;4.20;1.35;;;32.00;1.00;;;;;;6313359;22;20191;-83
2021/09/28 13:07:40;;;;;;;3.50;1.33;;;31.40;1.00;;;;;;6317577;22;20164;-83
2021/09/28 13:10:07;;;;;;;3.53;1.50;;;30.80;1.00;;;;;;6313311;22;20286;-84
2021/09/28 13:12:32;;;;;;;4.53;1.98;;;31.00;1.00;;;;;;6316658;22;20137;-83
2021/09/28 13:14:58;;;;;;;4.78;1.60;;;;;;;;;;6316097;22;20152;-82
2021/09/28 13:17:24;;;;;;;3.22;1.70;;;30.00;1.00;;;;;;6314132;22;20187;-83